createdAt,value
2023-03-25T00:00:18.315Z,147431.31
2023-03-25T00:01:25.869Z,147398.66
2023-03-25T00:02:30.128Z,147393.81
2023-03-25T00:03:35.677Z,147408.38
2023-03-25T00:04:41.396Z,147399.88
2023-03-25T00:05:43.963Z,147393.81
2023-03-25T00:06:47.086Z,147397.44
2023-03-25T00:07:52.372Z,147415.63
2023-03-25T00:08:55.840Z,147419.25
2023-03-25T00:09:58.369Z,147414.41
2023-03-25T00:11:04.250Z,147424.06
2023-03-25T00:12:06.886Z,147402.28
2023-03-25T00:13:09.404Z,147412.00
2023-03-25T00:14:12.411Z,147416.81
2023-03-25T00:15:16.622Z,147412.00
2023-03-25T00:16:19.308Z,147418.03
2023-03-25T00:17:22.642Z,147421.66
2023-03-25T00:18:33.792Z,147450.69
2023-03-25T00:19:36.585Z,147407.16
2023-03-25T00:20:42.407Z,147401.06
2023-03-25T00:21:44.825Z,147408.38
2023-03-25T00:22:47.330Z,147412.00
2023-03-25T00:23:49.855Z,147416.81
2023-03-25T00:24:52.623Z,147404.75
2023-03-25T00:26:00.493Z,147409.56
2023-03-25T00:27:03.534Z,147419.25
2023-03-25T00:28:06.062Z,147425.28
2023-03-25T00:29:09.549Z,147442.22
2023-03-25T00:30:12.656Z,147441.03
2023-03-25T00:31:15.714Z,147448.28
2023-03-25T00:32:21.072Z,147455.53
2023-03-25T00:33:23.460Z,147448.28
2023-03-25T00:34:25.976Z,147456.72
2023-03-25T00:35:29.171Z,147463.97
2023-03-25T00:36:31.740Z,147468.81
2023-03-25T00:37:34.633Z,147477.31
2023-03-25T00:38:38.044Z,147478.53
2023-03-25T00:39:41.220Z,147482.16
2023-03-25T00:40:43.866Z,147484.56
2023-03-25T00:41:46.392Z,147485.78
2023-03-25T00:42:50.491Z,147495.44
2023-03-25T00:43:55.525Z,147511.19
2023-03-25T00:44:58.026Z,147518.44
2023-03-25T00:46:00.791Z,147508.78
2023-03-25T00:47:03.427Z,147512.41
2023-03-25T00:48:07.111Z,147519.66
2023-03-25T00:49:10.868Z,147511.19
2023-03-25T00:50:14.585Z,147530.53
2023-03-25T00:51:21.756Z,147523.28
2023-03-25T00:52:24.434Z,147523.28
2023-03-25T00:53:26.966Z,147537.81
2023-03-25T00:54:29.350Z,147531.72
2023-03-25T00:55:31.990Z,147530.53
2023-03-25T00:56:34.514Z,147528.09
2023-03-25T00:57:37.156Z,147535.41
2023-03-25T00:58:40.765Z,147532.94
2023-03-25T00:59:43.273Z,147537.81
2023-03-25T01:00:45.807Z,147526.91
2023-03-25T01:01:48.346Z,147530.53
2023-03-25T01:02:54.136Z,147529.31
2023-03-25T01:03:58.755Z,147557.19
2023-03-25T01:05:02.236Z,147569.31
2023-03-25T01:06:09.439Z,147559.63
2023-03-25T01:07:12.796Z,147562.03
2023-03-25T01:08:15.201Z,147554.78
2023-03-25T01:09:19.938Z,147558.41
2023-03-25T01:10:23.003Z,147554.78
2023-03-25T01:11:28.283Z,147570.53
2023-03-25T01:12:30.802Z,147552.38
2023-03-25T01:13:33.320Z,147559.63
2023-03-25T01:14:35.843Z,147555.97
2023-03-25T01:15:39.938Z,147557.19
2023-03-25T01:16:43.660Z,147552.38
2023-03-25T01:17:46.356Z,147535.41
2023-03-25T01:18:49.043Z,147532.94
2023-03-25T01:19:52.046Z,147531.72
2023-03-25T01:20:54.583Z,147532.94
2023-03-25T01:21:57.206Z,147525.69
2023-03-25T01:22:59.607Z,147529.31
2023-03-25T01:24:02.729Z,147520.84
2023-03-25T01:25:05.606Z,147518.44
2023-03-25T01:26:08.129Z,147523.28
2023-03-25T01:27:10.648Z,147522.06
2023-03-25T01:28:13.175Z,147520.84
2023-03-25T01:29:19.425Z,147541.44
2023-03-25T01:30:21.931Z,147520.84
2023-03-25T01:31:26.133Z,147516.03
2023-03-25T01:32:29.391Z,147536.59
2023-03-25T01:33:32.737Z,147517.22
2023-03-25T01:34:38.784Z,147534.13
2023-03-25T01:35:42.019Z,147523.28
2023-03-25T01:36:46.813Z,147514.81
2023-03-25T01:37:49.534Z,147516.03
2023-03-25T01:38:52.552Z,147520.84
2023-03-25T01:39:55.057Z,147532.94
2023-03-25T01:40:57.582Z,147525.69
2023-03-25T01:42:00.111Z,147523.28
2023-03-25T01:43:02.509Z,147530.53
2023-03-25T01:44:08.019Z,147530.53
2023-03-25T01:45:29.381Z,147548.69
2023-03-25T01:46:31.933Z,147526.91
2023-03-25T01:47:34.465Z,147518.44
2023-03-25T01:48:43.188Z,147537.81
2023-03-25T01:49:46.916Z,147541.44
2023-03-25T01:50:58.429Z,147564.44
2023-03-25T01:52:09.483Z,147562.03
2023-03-25T01:53:12.717Z,147535.41
2023-03-25T01:54:18.147Z,147514.81
2023-03-25T01:55:20.989Z,147517.22
2023-03-25T01:56:27.628Z,147554.78
2023-03-25T01:57:32.509Z,147499.06
2023-03-25T01:58:36.117Z,147520.84
2023-03-25T01:59:40.072Z,147537.81
2023-03-25T02:00:44.526Z,147532.94
2023-03-25T02:01:47.153Z,147525.69
2023-03-25T02:02:50.971Z,147516.03
2023-03-25T02:04:03.065Z,147540.22
2023-03-25T02:05:12.241Z,147542.66
2023-03-25T02:06:26.639Z,147545.06
2023-03-25T02:07:32.930Z,147525.69
2023-03-25T02:08:39.841Z,147548.69
2023-03-25T02:09:43.336Z,147530.53
2023-03-25T02:10:47.160Z,147541.44
2023-03-25T02:11:50.651Z,147520.84
2023-03-25T02:12:53.167Z,147513.59
2023-03-25T02:13:59.883Z,147543.84
2023-03-25T02:15:06.129Z,147543.84
2023-03-25T02:16:14.908Z,147502.72
2023-03-25T02:17:26.088Z,147524.47
2023-03-25T02:18:31.685Z,147545.06
2023-03-25T02:19:36.973Z,147530.53
2023-03-25T02:20:57.850Z,147557.19
2023-03-25T02:22:42.018Z,147554.78
2023-03-25T02:24:24.256Z,147539.03
2023-03-25T02:25:39.781Z,147532.94
2023-03-25T02:27:13.950Z,147508.78
2023-03-25T02:28:26.270Z,147503.94
2023-03-25T02:29:49.592Z,147516.03
2023-03-25T02:31:09.733Z,147518.44
2023-03-25T02:32:40.846Z,147524.47
2023-03-25T02:34:04.579Z,147532.94
2023-03-25T02:35:26.218Z,147507.56
2023-03-25T02:36:46.459Z,147482.16
2023-03-25T02:38:07.705Z,147474.91
2023-03-25T02:39:19.582Z,147462.78
2023-03-25T02:40:34.579Z,147462.78
2023-03-25T02:41:46.340Z,147441.03
2023-03-25T02:42:55.463Z,147433.72
2023-03-25T02:44:25.707Z,147467.59
2023-03-25T02:45:50.604Z,147450.69
2023-03-25T02:47:02.185Z,147431.31
2023-03-25T02:48:38.318Z,147450.69
2023-03-25T02:49:47.792Z,147436.16
2023-03-25T02:50:53.606Z,147433.72
2023-03-25T02:51:59.314Z,147433.72
2023-03-25T02:53:08.820Z,147434.94
2023-03-25T02:54:15.870Z,147428.91
2023-03-25T02:55:21.750Z,147434.94
2023-03-25T02:56:26.557Z,147438.63
2023-03-25T02:57:30.633Z,147426.50
2023-03-25T02:58:33.399Z,147436.16
2023-03-25T02:59:38.636Z,147450.69
2023-03-25T03:00:43.369Z,147455.53
2023-03-25T03:01:50.562Z,147448.28
2023-03-25T03:03:03.914Z,147462.78
2023-03-25T03:04:08.194Z,147432.53
2023-03-25T03:05:45.641Z,147470.06
2023-03-25T03:06:48.283Z,147414.41
2023-03-25T03:08:14.849Z,147425.28
2023-03-25T03:09:32.928Z,147419.25
2023-03-25T03:11:07.719Z,147404.75
2023-03-25T03:12:28.725Z,147366.00
2023-03-25T03:13:38.082Z,147408.38
2023-03-25T03:14:49.365Z,147392.63
2023-03-25T03:16:21.965Z,147385.38
2023-03-25T03:17:34.736Z,147376.91
2023-03-25T03:18:38.226Z,147339.44
2023-03-25T03:19:50.941Z,147368.41
2023-03-25T03:21:07.243Z,147372.09
2023-03-25T03:22:43.488Z,147390.19
2023-03-25T03:24:01.861Z,147363.59
2023-03-25T03:25:29.111Z,147372.09
2023-03-25T03:26:40.257Z,147367.22
2023-03-25T03:28:04.750Z,147346.69
2023-03-25T03:29:13.269Z,147359.97
2023-03-25T03:30:27.293Z,147314.03
2023-03-25T03:31:48.620Z,147351.50
2023-03-25T03:33:33.193Z,147352.72
2023-03-25T03:35:08.480Z,147346.69
2023-03-25T03:36:17.459Z,147340.66
2023-03-25T03:37:32.945Z,147329.72
2023-03-25T03:38:41.344Z,147344.28
2023-03-25T03:39:47.833Z,147339.44
2023-03-25T03:40:58.144Z,147340.66
2023-03-25T03:42:13.029Z,147358.75
2023-03-25T03:43:54.192Z,147366.00
2023-03-25T03:45:05.347Z,147329.72
2023-03-25T03:46:24.593Z,147330.94
2023-03-25T03:47:32.970Z,147324.91
2023-03-25T03:48:53.346Z,147332.16
2023-03-25T03:50:09.330Z,147298.28
2023-03-25T03:51:19.644Z,147278.97
2023-03-25T03:52:37.772Z,147278.97
2023-03-25T03:53:45.799Z,147264.44
2023-03-25T03:54:53.119Z,147249.94
2023-03-25T03:56:01.766Z,147249.94
2023-03-25T03:57:27.823Z,147235.41
2023-03-25T03:58:35.122Z,147203.97
2023-03-25T04:00:07.051Z,147196.75
2023-03-25T04:01:28.165Z,147179.84
2023-03-25T04:02:51.132Z,147177.44
2023-03-25T04:03:58.448Z,147159.28
2023-03-25T04:05:01.161Z,147109.69
2023-03-25T04:06:18.803Z,147142.34
2023-03-25T04:07:55.207Z,147161.69
2023-03-25T04:09:04.524Z,147159.28
2023-03-25T04:10:18.814Z,147162.91
2023-03-25T04:11:25.767Z,147150.81
2023-03-25T04:12:30.926Z,147150.81
2023-03-25T04:13:37.762Z,147150.81
2023-03-25T04:14:40.415Z,147115.78
2023-03-25T04:15:43.767Z,147132.69
2023-03-25T04:16:46.299Z,147124.22
2023-03-25T04:17:48.791Z,147129.06
2023-03-25T04:18:53.858Z,147125.44
2023-03-25T04:19:56.985Z,147129.06
2023-03-25T04:21:01.046Z,147131.47
2023-03-25T04:22:04.776Z,147149.63
2023-03-25T04:23:09.980Z,147131.47
2023-03-25T04:24:16.690Z,147142.34
2023-03-25T04:25:21.693Z,147133.88
2023-03-25T04:26:24.333Z,147137.50
2023-03-25T04:27:29.921Z,147143.59
2023-03-25T04:28:32.499Z,147143.59
2023-03-25T04:29:35.019Z,147126.66
2023-03-25T04:30:37.534Z,147121.81
2023-03-25T04:31:46.731Z,147115.78
2023-03-25T04:32:49.240Z,147113.38
2023-03-25T04:33:52.058Z,147121.81
2023-03-25T04:34:58.778Z,147135.09
2023-03-25T04:36:02.105Z,147124.22
2023-03-25T04:37:04.778Z,147126.66
2023-03-25T04:38:08.139Z,147143.59
2023-03-25T04:39:17.911Z,147126.66
2023-03-25T04:40:20.861Z,147119.41
2023-03-25T04:41:23.825Z,147126.66
2023-03-25T04:42:32.805Z,147143.59
2023-03-25T04:43:35.510Z,147129.06
2023-03-25T04:44:39.409Z,147146.00
2023-03-25T04:45:54.597Z,147133.88
2023-03-25T04:46:57.944Z,147121.81
2023-03-25T04:48:00.521Z,147121.81
2023-03-25T04:49:06.236Z,147155.66
2023-03-25T04:50:22.461Z,147162.91
2023-03-25T04:51:24.828Z,147124.22
2023-03-25T04:52:27.350Z,147137.50
2023-03-25T04:53:30.356Z,147141.13
2023-03-25T04:54:32.869Z,147126.66
2023-03-25T04:55:35.638Z,147114.56
2023-03-25T04:56:39.627Z,147139.91
2023-03-25T04:57:42.241Z,147129.06
2023-03-25T04:58:45.722Z,147129.06
2023-03-25T04:59:48.358Z,147133.88
2023-03-25T05:00:52.101Z,147149.63
2023-03-25T05:01:54.601Z,147154.44
2023-03-25T05:02:57.157Z,147146.00
2023-03-25T05:04:06.088Z,147165.31
2023-03-25T05:05:08.877Z,147158.06
2023-03-25T05:06:11.516Z,147154.44
2023-03-25T05:07:14.038Z,147158.06
2023-03-25T05:08:16.559Z,147162.91
2023-03-25T05:09:24.485Z,147207.59
2023-03-25T05:10:30.967Z,147194.31
2023-03-25T05:11:36.119Z,147211.28
2023-03-25T05:12:38.524Z,147177.44
2023-03-25T05:13:41.038Z,147187.09
2023-03-25T05:14:43.443Z,147188.28
2023-03-25T05:15:45.962Z,147194.31
2023-03-25T05:16:48.763Z,147203.97
2023-03-25T05:17:51.277Z,147199.16
2023-03-25T05:18:53.766Z,147212.47
2023-03-25T05:19:57.120Z,147223.34
2023-03-25T05:21:00.978Z,147233.00
2023-03-25T05:22:04.796Z,147248.75
2023-03-25T05:23:12.431Z,147248.75
2023-03-25T05:24:14.894Z,147230.59
2023-03-25T05:25:18.374Z,147233.00
2023-03-25T05:26:20.975Z,147247.53
2023-03-25T05:27:23.410Z,147237.84
2023-03-25T05:28:25.927Z,147257.19
2023-03-25T05:29:28.592Z,147264.44
2023-03-25T05:30:32.629Z,147271.69
2023-03-25T05:31:36.263Z,147276.56
2023-03-25T05:32:41.433Z,147262.03
2023-03-25T05:33:44.170Z,147265.63
2023-03-25T05:34:46.819Z,147278.97
2023-03-25T05:35:49.612Z,147277.75
2023-03-25T05:36:54.397Z,147271.69
2023-03-25T05:37:56.905Z,147262.03
2023-03-25T05:38:59.893Z,147275.34
2023-03-25T05:40:02.545Z,147269.25
2023-03-25T05:41:18.161Z,147262.03
2023-03-25T05:42:24.019Z,147264.44
2023-03-25T05:43:26.537Z,147268.06
2023-03-25T05:44:29.299Z,147272.88
2023-03-25T05:45:31.847Z,147264.44
2023-03-25T05:46:34.588Z,147283.81
2023-03-25T05:47:37.027Z,147265.63
2023-03-25T05:48:41.554Z,147276.56
2023-03-25T05:49:44.066Z,147275.34
2023-03-25T05:50:46.586Z,147291.03
2023-03-25T05:51:54.150Z,147286.22
2023-03-25T05:52:57.695Z,147281.38
2023-03-25T05:54:00.390Z,147303.13
2023-03-25T05:55:05.065Z,147306.78
2023-03-25T05:56:07.950Z,147327.31
2023-03-25T05:57:10.539Z,147295.88
2023-03-25T05:58:12.995Z,147315.25
2023-03-25T05:59:16.727Z,147303.13
2023-03-25T06:00:21.550Z,147345.47
2023-03-25T06:01:33.480Z,147324.91
2023-03-25T06:02:39.060Z,147334.56
2023-03-25T06:03:43.368Z,147346.69
2023-03-25T06:04:50.576Z,147363.59
2023-03-25T06:05:53.442Z,147332.16
2023-03-25T06:06:55.954Z,147321.28
2023-03-25T06:07:58.496Z,147308.00
2023-03-25T06:09:01.358Z,147318.88
2023-03-25T06:10:05.558Z,147334.56
2023-03-25T06:11:09.876Z,147315.25
2023-03-25T06:12:23.204Z,147341.84
2023-03-25T06:13:25.600Z,147295.88
2023-03-25T06:14:28.120Z,147303.13
2023-03-25T06:15:39.106Z,147305.53
2023-03-25T06:16:41.682Z,147293.47
2023-03-25T06:17:46.700Z,147316.44
2023-03-25T06:18:56.295Z,147326.09
2023-03-25T06:20:00.657Z,147324.91
2023-03-25T06:21:03.541Z,147335.75
2023-03-25T06:22:11.206Z,147375.72
2023-03-25T06:23:13.736Z,147324.91
2023-03-25T06:24:16.252Z,147344.28
2023-03-25T06:25:20.912Z,147361.19
2023-03-25T06:26:24.533Z,147376.91
2023-03-25T06:27:28.132Z,147362.38
2023-03-25T06:28:30.654Z,147392.63
2023-03-25T06:29:37.252Z,147415.63
2023-03-25T06:30:39.652Z,147409.56
2023-03-25T06:31:43.144Z,147392.63
2023-03-25T06:32:50.697Z,147385.38
2023-03-25T06:33:54.186Z,147372.09
2023-03-25T06:34:56.697Z,147387.78
2023-03-25T06:35:59.236Z,147404.75
2023-03-25T06:37:02.336Z,147408.38
2023-03-25T06:38:04.876Z,147382.97
2023-03-25T06:39:21.298Z,147401.06
2023-03-25T06:40:24.315Z,147402.28
2023-03-25T06:41:27.064Z,147412.00
2023-03-25T06:42:42.299Z,147426.50
2023-03-25T06:44:10.747Z,147443.44
2023-03-25T06:45:21.905Z,147456.72
2023-03-25T06:46:54.423Z,147442.22
2023-03-25T06:48:05.705Z,147443.44
2023-03-25T06:49:08.342Z,147457.94
2023-03-25T06:50:11.106Z,147476.09
2023-03-25T06:51:13.624Z,147474.91
2023-03-25T06:52:16.645Z,147462.78
2023-03-25T06:53:19.178Z,147437.41
2023-03-25T06:54:22.931Z,147472.47
2023-03-25T06:55:25.512Z,147503.94
2023-03-25T06:56:28.068Z,147500.28
2023-03-25T06:57:30.434Z,147460.34
2023-03-25T06:58:35.368Z,147472.47
2023-03-25T06:59:37.997Z,147441.03
2023-03-25T07:00:40.753Z,147444.66
2023-03-25T07:01:43.271Z,147451.91
2023-03-25T07:02:46.572Z,147453.09
2023-03-25T07:03:49.035Z,147443.44
2023-03-25T07:04:51.748Z,147436.16
2023-03-25T07:05:54.315Z,147438.63
2023-03-25T07:06:57.826Z,147428.91
2023-03-25T07:08:00.568Z,147428.91
2023-03-25T07:09:03.207Z,147404.75
2023-03-25T07:10:07.519Z,147401.06
2023-03-25T07:11:12.442Z,147415.63
2023-03-25T07:12:14.961Z,147378.13
2023-03-25T07:13:17.363Z,147345.47
2023-03-25T07:14:19.883Z,147295.88
2023-03-25T07:15:22.304Z,147291.03
2023-03-25T07:16:26.004Z,147281.38
2023-03-25T07:17:28.553Z,147274.13
2023-03-25T07:18:31.063Z,147247.53
2023-03-25T07:19:33.568Z,147237.84
2023-03-25T07:20:36.208Z,147228.16
2023-03-25T07:21:38.847Z,147185.88
2023-03-25T07:22:41.376Z,147174.97
2023-03-25T07:23:43.891Z,147118.19
2023-03-25T07:24:46.428Z,147097.59
2023-03-25T07:25:49.013Z,147083.09
2023-03-25T07:26:51.584Z,147073.41
2023-03-25T07:27:57.335Z,147066.16
2023-03-25T07:28:59.973Z,147073.41
2023-03-25T07:30:02.374Z,147063.75
2023-03-25T07:31:10.492Z,147106.09
2023-03-25T07:32:12.824Z,147063.75
2023-03-25T07:33:15.588Z,147055.31
2023-03-25T07:34:17.993Z,147037.16
2023-03-25T07:35:20.879Z,147033.53
2023-03-25T07:36:25.297Z,147011.78
2023-03-25T07:37:27.819Z,146982.84
2023-03-25T07:38:30.345Z,146977.97
2023-03-25T07:39:32.886Z,146969.50
2023-03-25T07:40:35.994Z,146967.09
2023-03-25T07:41:38.502Z,146951.44
2023-03-25T07:42:58.190Z,146945.34
2023-03-25T07:44:21.964Z,146940.53
2023-03-25T07:45:25.950Z,146933.28
2023-03-25T07:46:28.834Z,146920.03
2023-03-25T07:47:31.448Z,146923.63
2023-03-25T07:48:33.951Z,146928.47
2023-03-25T07:49:36.474Z,146930.88
2023-03-25T07:50:38.990Z,146930.88
2023-03-25T07:51:41.514Z,146930.88
2023-03-25T07:52:44.152Z,146927.25
2023-03-25T07:53:46.673Z,146930.88
2023-03-25T07:54:49.084Z,146933.28
2023-03-25T07:55:51.965Z,146944.16
2023-03-25T07:56:55.632Z,146967.09
2023-03-25T07:58:02.874Z,146986.44
2023-03-25T07:59:05.761Z,146996.09
2023-03-25T08:00:09.958Z,147008.16
2023-03-25T08:01:15.834Z,147011.78
2023-03-25T08:02:18.434Z,147014.25
2023-03-25T08:03:21.381Z,147016.66
2023-03-25T08:04:24.001Z,147033.53
2023-03-25T08:05:28.091Z,147058.94
2023-03-25T08:06:31.320Z,147081.91
2023-03-25T08:07:34.203Z,147096.38
2023-03-25T08:08:36.746Z,147136.31
2023-03-25T08:09:39.127Z,147133.88
2023-03-25T08:10:43.686Z,147171.34
2023-03-25T08:11:47.522Z,147235.41
2023-03-25T08:12:52.817Z,147403.50
2023-03-25T08:13:55.327Z,147496.63
2023-03-25T08:14:58.097Z,147635.88
2023-03-25T08:16:00.964Z,147772.66
2023-03-25T08:17:07.688Z,147955.56
2023-03-25T08:18:10.120Z,148030.72
2023-03-25T08:19:12.603Z,148116.72
2023-03-25T08:20:15.753Z,148116.72
2023-03-25T08:21:22.333Z,148073.13
2023-03-25T08:22:24.842Z,147949.53
2023-03-25T08:23:27.256Z,147891.31
2023-03-25T08:24:30.242Z,147789.59
2023-03-25T08:25:32.646Z,147781.13
2023-03-25T08:26:35.648Z,147795.69
2023-03-25T08:27:38.292Z,147765.41
2023-03-25T08:28:40.688Z,147792.00
2023-03-25T08:29:43.208Z,147825.91
2023-03-25T08:30:46.222Z,147840.47
2023-03-25T08:31:52.502Z,147862.28
2023-03-25T08:32:55.379Z,147880.44
2023-03-25T08:33:59.291Z,147742.41
2023-03-25T08:35:04.341Z,147678.22
2023-03-25T08:36:10.735Z,147915.56
2023-03-25T08:37:14.413Z,147949.53
2023-03-25T08:38:17.535Z,147921.59
2023-03-25T08:39:22.098Z,147859.84
2023-03-25T08:40:24.614Z,147880.44
2023-03-25T08:41:27.138Z,147985.84
2023-03-25T08:42:29.655Z,148110.69
2023-03-25T08:43:32.419Z,148172.50
2023-03-25T08:44:35.566Z,148214.91
2023-03-25T08:45:38.060Z,148219.81
2023-03-25T08:46:40.649Z,148228.28
2023-03-25T08:47:45.709Z,148159.19
2023-03-25T08:48:50.148Z,148039.19
2023-03-25T08:49:52.827Z,148014.94
2023-03-25T08:50:55.349Z,148034.34
2023-03-25T08:52:00.402Z,148052.50
2023-03-25T08:53:02.903Z,148051.28
2023-03-25T08:54:05.426Z,148088.84
2023-03-25T08:55:11.811Z,147999.22
2023-03-25T08:56:15.394Z,147965.28
2023-03-25T08:57:18.032Z,147858.63
2023-03-25T08:58:21.154Z,147823.50
2023-03-25T08:59:23.682Z,147794.44
2023-03-25T09:00:27.527Z,147811.41
2023-03-25T09:01:30.115Z,147775.09
2023-03-25T09:02:32.697Z,147789.59
2023-03-25T09:03:35.203Z,147750.88
2023-03-25T09:04:39.057Z,147721.81
2023-03-25T09:05:41.851Z,147657.63
2023-03-25T09:06:48.229Z,147644.34
2023-03-25T09:08:07.369Z,147599.59
2023-03-25T09:09:12.036Z,147600.78
2023-03-25T09:10:14.799Z,147608.03
2023-03-25T09:11:24.195Z,147574.16
2023-03-25T09:12:33.534Z,147530.53
2023-03-25T09:13:36.166Z,147528.09
2023-03-25T09:14:38.811Z,147451.91
2023-03-25T09:15:41.761Z,147414.41
2023-03-25T09:16:44.215Z,147368.41
2023-03-25T09:17:47.024Z,147327.31
2023-03-25T09:18:49.607Z,147310.41
2023-03-25T09:19:53.995Z,147304.31
2023-03-25T09:21:01.007Z,147351.50
2023-03-25T09:22:04.009Z,147282.59
2023-03-25T09:23:06.777Z,147272.88
2023-03-25T09:24:09.891Z,147283.81
2023-03-25T09:25:14.189Z,147292.25
2023-03-25T09:26:16.729Z,147271.69
2023-03-25T09:27:19.252Z,147245.13
2023-03-25T09:28:21.773Z,147253.56
2023-03-25T09:29:24.166Z,147251.16
2023-03-25T09:30:26.686Z,147237.84
2023-03-25T09:31:29.279Z,147247.53
2023-03-25T09:32:31.990Z,147247.53
2023-03-25T09:33:34.491Z,147240.25
2023-03-25T09:34:38.813Z,147210.06
2023-03-25T09:35:41.529Z,147167.72
2023-03-25T09:36:45.798Z,147083.09
2023-03-25T09:37:51.954Z,147008.16
2023-03-25T09:38:55.143Z,146959.88
2023-03-25T09:39:57.774Z,146968.31
2023-03-25T09:41:16.855Z,146985.25
2023-03-25T09:42:43.973Z,147017.88
2023-03-25T09:44:09.547Z,147021.47
2023-03-25T09:45:26.225Z,146991.28
2023-03-25T09:46:28.908Z,147020.28
2023-03-25T09:47:34.246Z,147054.09
2023-03-25T09:48:43.027Z,147087.94
2023-03-25T09:49:53.804Z,147100.00
2023-03-25T09:50:59.715Z,147167.72
2023-03-25T09:52:02.942Z,147137.50
2023-03-25T09:53:16.024Z,147183.47
2023-03-25T09:54:30.077Z,147211.28
2023-03-25T09:55:41.467Z,147217.31
2023-03-25T09:56:44.900Z,147217.31
2023-03-25T09:57:51.563Z,147242.72
2023-03-25T09:59:04.148Z,147262.03
2023-03-25T10:00:07.274Z,147230.59
2023-03-25T10:01:29.112Z,147269.25
2023-03-25T10:02:45.286Z,147272.88
2023-03-25T10:03:54.194Z,147237.84
2023-03-25T10:05:06.593Z,147287.41
2023-03-25T10:06:14.839Z,147264.44
2023-03-25T10:07:28.396Z,147281.38
2023-03-25T10:08:57.081Z,147259.59
2023-03-25T10:10:27.319Z,147258.41
2023-03-25T10:11:40.279Z,147259.59
2023-03-25T10:12:52.561Z,147275.34
2023-03-25T10:14:03.560Z,147315.25
2023-03-25T10:15:23.962Z,147356.34
2023-03-25T10:16:58.641Z,147420.44
2023-03-25T10:18:29.128Z,147402.28
2023-03-25T10:19:51.246Z,147390.19
2023-03-25T10:21:13.164Z,147447.06
2023-03-25T10:22:19.062Z,147431.31
2023-03-25T10:23:40.169Z,147531.72
2023-03-25T10:24:54.692Z,147535.41
2023-03-25T10:26:03.211Z,147589.88
2023-03-25T10:27:14.968Z,147658.84
2023-03-25T10:28:22.890Z,147838.06
2023-03-25T10:29:42.213Z,147972.56
2023-03-25T10:30:49.203Z,148012.53
2023-03-25T10:31:54.301Z,148094.94
2023-03-25T10:32:58.833Z,148128.88
2023-03-25T10:34:06.941Z,148117.94
2023-03-25T10:35:19.090Z,148056.13
2023-03-25T10:36:33.226Z,148030.72
2023-03-25T10:37:42.178Z,147891.31
2023-03-25T10:38:48.335Z,147917.97
2023-03-25T10:39:51.640Z,147882.84
2023-03-25T10:41:14.382Z,147927.75
2023-03-25T10:42:26.164Z,147993.16
2023-03-25T10:43:34.064Z,147962.88
2023-03-25T10:44:36.710Z,147864.72
2023-03-25T10:45:41.950Z,147898.63
2023-03-25T10:46:51.585Z,147910.72
2023-03-25T10:48:01.591Z,147871.97
2023-03-25T10:49:04.071Z,147812.63
2023-03-25T10:50:07.567Z,147785.97
2023-03-25T10:51:13.067Z,147743.59
2023-03-25T10:52:16.438Z,147730.31
2023-03-25T10:53:27.965Z,147704.88
2023-03-25T10:54:36.712Z,147720.59
2023-03-25T10:55:42.110Z,147683.06
2023-03-25T10:56:48.637Z,147709.72
2023-03-25T10:57:52.191Z,147675.81
2023-03-25T10:58:57.712Z,147673.41
2023-03-25T11:00:05.165Z,147879.22
2023-03-25T11:01:17.832Z,148177.34
2023-03-25T11:02:25.436Z,148388.41
2023-03-25T11:03:34.576Z,148740.31
2023-03-25T11:04:41.273Z,148883.66
2023-03-25T11:05:45.720Z,148963.81
2023-03-25T11:06:58.206Z,149019.72
2023-03-25T11:08:18.185Z,148978.41
2023-03-25T11:09:28.208Z,148796.19
2023-03-25T11:10:35.037Z,148645.66
2023-03-25T11:11:37.803Z,148722.13
2023-03-25T11:12:46.674Z,148754.91
2023-03-25T11:13:56.893Z,148657.78
2023-03-25T11:15:01.926Z,148538.78
2023-03-25T11:16:04.873Z,148618.97
2023-03-25T11:17:18.619Z,148617.75
2023-03-25T11:18:35.767Z,148633.50
2023-03-25T11:19:42.600Z,148746.41
2023-03-25T11:20:54.599Z,148650.53
2023-03-25T11:22:08.046Z,148606.78
2023-03-25T11:23:37.806Z,148451.47
2023-03-25T11:24:47.768Z,148327.75
2023-03-25T11:25:51.048Z,148225.84
2023-03-25T11:26:54.007Z,148080.38
2023-03-25T11:28:03.373Z,148027.09
2023-03-25T11:29:14.048Z,147937.44
2023-03-25T11:30:23.555Z,147862.28
2023-03-25T11:31:30.069Z,147783.56
2023-03-25T11:32:38.434Z,147729.06
2023-03-25T11:33:43.841Z,147709.72
2023-03-25T11:34:50.715Z,147744.81
2023-03-25T11:35:53.398Z,147695.16
2023-03-25T11:37:00.850Z,147687.91
2023-03-25T11:38:22.842Z,147595.91
2023-03-25T11:39:42.615Z,147586.25
2023-03-25T11:40:53.534Z,147595.91
2023-03-25T11:41:57.444Z,147555.97
2023-03-25T11:43:02.054Z,147593.50
2023-03-25T11:44:06.149Z,147614.09
2023-03-25T11:45:21.863Z,147640.72
2023-03-25T11:46:25.129Z,147689.13
2023-03-25T11:47:32.686Z,147716.97
2023-03-25T11:48:40.111Z,147770.25
2023-03-25T11:49:42.871Z,147799.31
2023-03-25T11:50:54.263Z,147833.22
2023-03-25T11:52:00.623Z,147821.09
2023-03-25T11:53:04.596Z,147869.56
2023-03-25T11:54:11.440Z,147939.84
2023-03-25T11:55:19.826Z,148000.41
2023-03-25T11:56:27.528Z,147985.84
2023-03-25T11:57:39.746Z,148148.25
2023-03-25T11:58:42.396Z,148252.53
2023-03-25T11:59:47.313Z,148288.94
2023-03-25T12:00:51.873Z,148263.47
2023-03-25T12:02:18.795Z,148222.22
2023-03-25T12:03:26.377Z,148172.50
2023-03-25T12:04:29.794Z,148099.78
2023-03-25T12:05:33.394Z,148154.28
2023-03-25T12:06:36.315Z,148104.63
2023-03-25T12:07:47.570Z,148176.13
2023-03-25T12:08:57.642Z,148111.88
2023-03-25T12:10:06.281Z,148225.84
2023-03-25T12:11:15.643Z,148194.34
2023-03-25T12:12:25.718Z,148314.38
2023-03-25T12:14:01.723Z,148429.63
2023-03-25T12:15:27.643Z,148499.97
2023-03-25T12:16:37.646Z,148517.00
2023-03-25T12:17:40.160Z,148504.81
2023-03-25T12:19:01.365Z,148776.78
2023-03-25T12:20:21.885Z,148767.03
2023-03-25T12:21:43.013Z,148665.06
2023-03-25T12:23:00.132Z,148570.41
2023-03-25T12:24:33.286Z,148575.25
2023-03-25T12:26:01.249Z,148538.78
2023-03-25T12:27:12.649Z,148565.53
2023-03-25T12:28:24.050Z,148696.63
2023-03-25T12:29:51.290Z,148767.03
2023-03-25T12:31:04.317Z,148741.53
2023-03-25T12:32:26.847Z,148713.66
2023-03-25T12:33:32.573Z,148629.88
2023-03-25T12:34:52.978Z,148604.38
2023-03-25T12:36:32.827Z,148860.59
2023-03-25T12:38:12.181Z,148757.34
2023-03-25T12:40:06.176Z,148524.25
2023-03-25T12:41:31.641Z,148457.53
2023-03-25T12:43:11.361Z,148370.19
2023-03-25T12:44:38.224Z,148314.38
2023-03-25T12:45:41.026Z,148224.66
2023-03-25T12:47:04.386Z,148111.88
2023-03-25T12:48:12.782Z,147919.19
2023-03-25T12:49:27.184Z,147770.25
2023-03-25T12:50:43.147Z,147724.22
2023-03-25T12:51:48.431Z,147666.16
2023-03-25T12:52:53.945Z,147654.00